Flight Track Log - Related Links

Times and Time Zones

All times are in EDT time to prevent confusion due to time zone crossing. See the FFT931 flight status page for this flight to view local times or setup timezone preferences in your user account.

Time Position Orientation Groundspeed Altitude Reporting Facility
EDT Latitude Longitude Course Direction KTS MPH feet Rate Location/Type
Sat 03:02:01 PM 40.2530 -74.8450 226° Southwest 149 171 1,800  Level FlightAware ADS-B
Sat 03:02:32 PM 40.2400 -74.8630 227° Southwest 156 180 1,800 1,048 Level FlightAware ADS-B
Sat 03:03:04 PM 40.2120 -74.9030 227° Southwest 249 287 2,900 2,488 Climbing FlightAware ADS-B
Sat 03:03:13 PM 40.2030 -74.9150 226° Southwest 251 289 3,500 3,556 Climbing FlightAware ADS-B
Sat 03:03:31 PM 40.1890 -74.9330 224° Southwest 261 300 4,500 3,111 Climbing FlightAware ADS-B
Sat 03:03:40 PM 40.1790 -74.9410 211° Southwest 267 307 4,900 3,103 Climbing FlightAware ADS-B
Sat 03:04:00 PM 40.1570 -74.9560 208° Southwest 276 318 6,000 2,684 Climbing FlightAware ADS-B
Sat 03:04:18 PM 40.1360 -74.9710 209° Southwest 280 322 6,600 1,688 Climbing FlightAware ADS-B
Sat 03:04:32 PM 40.1200 -74.9810 206° Southwest 282 325 6,900 563 Climbing FlightAware ADS-B
Sat 03:04:50 PM 40.0990 -74.9950 207° Southwest 283 326 6,900  Level FlightAware ADS-B
Sat 03:05:17 PM 40.0670 -75.0160 207° Southwest 282 325 6,900  Level FlightAware ADS-B
Sat 03:05:36 PM 40.0460 -75.0300 207° Southwest 282 325 6,900 1,263 Level FlightAware ADS-B
Sat 03:05:55 PM 40.0230 -75.0460 208° Southwest 284 327 7,700 3,067 Climbing FlightAware ADS-B
Sat 03:06:21 PM 39.9920 -75.0670 207° Southwest 286 329 9,200 2,727 Climbing FlightAware ADS-B
Sat 03:06:39 PM 39.9710 -75.0810 207° Southwest 294 338 9,700 1,200 Climbing FlightAware ADS-B
Sat 03:06:56 PM 39.9500 -75.0950 207° Southwest 296 341 9,900 375 Climbing FlightAware ADS-B
Sat 03:07:11 PM 39.9310 -75.1070 206° Southwest 296 341 9,900  Level FlightAware ADS-B
Sat 03:07:36 PM 39.9010 -75.1270 207° Southwest 297 342 9,900  Level FlightAware ADS-B
Sat 03:07:58 PM 39.8730 -75.1460 208° Southwest 297 342 9,900  Level FlightAware ADS-B
Sat 03:08:09 PM 39.8600 -75.1550 208° Southwest 296 341 9,900 1,750 Level FlightAware ADS-B
Sat 03:08:46 PM 39.8150 -75.1840 206° Southwest 292 336 11,300 1,714 Climbing FlightAware ADS-B
Sat 03:09:19 PM 39.7760 -75.2100 207° Southwest 295 339 11,900 529 Climbing FlightAware ADS-B
Sat 03:09:54 PM 39.7330 -75.2390 207° Southwest 301 346 11,900  Level FlightAware ADS-B
Sat 03:10:31 PM 39.6850 -75.2710 207° Southwest 334 384 11,900 667 Level FlightAware ADS-B
Sat 03:11:06 PM 39.6350 -75.3010 205° Southwest 345 397 12,700 1,831 Climbing FlightAware ADS-B
Sat 03:11:30 PM 39.5960 -75.3100 190° South 351 404 13,700 2,500 Climbing FlightAware ADS-B
Sat 03:12:18 PM 39.5170 -75.3250 188° South 360 414 15,700 1,518 Climbing FlightAware ADS-B
Sat 03:12:53 PM 39.4600 -75.3350 188° South 362 417 15,800 86 Climbing FlightAware ADS-B
Sat 03:13:28 PM 39.4010 -75.3460 188° South 363 418 15,800 769 Level FlightAware ADS-B
Sat 03:14:11 PM 39.3310 -75.3580 188° South 366 421 16,800 789 Climbing FlightAware ADS-B
Sat 03:14:44 PM 39.2730 -75.3690 188° South 370 426 16,800  Level FlightAware ADS-B
Sat 03:15:19 PM 39.2150 -75.3790 188° South 371 427 16,800 554 Level FlightAware ADS-B
Sat 03:15:49 PM 39.1640 -75.3880 188° South 373 429 17,400 1,583 Climbing FlightAware ADS-B
Sat 03:16:31 PM 39.0910 -75.3980 186° South 388 447 18,700 2,077 Climbing FlightAware ADS-B
Sat 03:17:07 PM 39.0250 -75.4080 187° South 394 453 20,100 2,060 Climbing FlightAware ADS-B
Sat 03:17:38 PM 38.9680 -75.4170 187° South 403 464 21,000 2,087 Climbing FlightAware ADS-B
Sat 03:18:16 PM 38.8950 -75.4280 187° South 406 467 22,500 2,137 Climbing FlightAware ADS-B
Sat 03:18:51 PM 38.8300 -75.4380 187° South 411 473 23,600 1,775 Climbing FlightAware ADS-B
Sat 03:19:27 PM 38.7630 -75.4480 187° South 418 481 24,600 1,543 Climbing FlightAware ADS-B
Sat 03:20:01 PM 38.6970 -75.4580 187° South 426 490 25,400 1,500 Climbing FlightAware ADS-B
Sat 03:20:35 PM 38.6290 -75.4680 187° South 432 497 26,300 1,457 Climbing FlightAware ADS-B
Sat 03:21:11 PM 38.5570 -75.4790 187° South 443 510 27,100 1,250 Climbing FlightAware ADS-B
Sat 03:21:47 PM 38.4850 -75.4900 187° South 454 522 27,800 1,182 Climbing FlightAware ADS-B
Sat 03:22:17 PM 38.4220 -75.5130 196° South 459 528 28,400 1,324 Climbing FlightAware ADS-B
Sat 03:22:55 PM 38.3490 -75.5630 208° Southwest 465 535 29,300 1,263 Climbing FlightAware ADS-B
Sat 03:23:33 PM 38.2760 -75.6130 208° Southwest 475 547 30,000 1,114 Climbing FlightAware ADS-B
Sat 03:24:05 PM 38.2140 -75.6570 209° Southwest 482 555 30,600 1,182 Climbing FlightAware ADS-B
Sat 03:24:39 PM 38.1480 -75.7030 209° Southwest 485 558 31,300 1,286 Climbing FlightAware ADS-B
Sat 03:25:15 PM 38.0770 -75.7530 209° Southwest 486 559 32,100 1,297 Climbing FlightAware ADS-B
Sat 03:25:53 PM 38.0020 -75.8050 209° Southwest 488 562 32,900 1,114 Climbing FlightAware ADS-B
Sat 03:26:25 PM 37.9420 -75.8460 208° Southwest 493 567 33,400 943 Climbing FlightAware ADS-B
Sat 03:27:03 PM 37.8620 -75.9010 208° Southwest 494 568 34,000 500 Climbing FlightAware ADS-B
Sat 03:27:37 PM 37.7930 -75.9490 209° Southwest 490 564 34,000 265 Level FlightAware ADS-B
Sat 03:28:11 PM 37.7260 -75.9950 209° Southwest 492 566 34,300 686 Climbing FlightAware ADS-B
Sat 03:28:47 PM 37.6560 -76.0430 208° Southwest 494 568 34,800 1,275 Climbing FlightAware ADS-B
Sat 03:29:31 PM 37.5690 -76.1030 209° Southwest 487 560 36,000 900 Climbing FlightAware ADS-B
Sat 03:30:07 PM 37.5010 -76.1490 208° Southwest 328 377 36,000  Level FlightAware ADS-B
Sat 03:30:43 PM 37.4290 -76.1980 208° Southwest 486 559 36,000 81 Level FlightAware ADS-B
Sat 03:31:21 PM 37.3510 -76.2510 208° Southwest 488 562 36,100 507 Climbing FlightAware ADS-B
Sat 03:31:54 PM 37.2840 -76.2970 209° Southwest 486 559 36,600 1,091 Climbing FlightAware ADS-B
Sat 03:32:27 PM 37.2200 -76.3400 208° Southwest 482 555 37,300 1,183 Climbing FlightAware ADS-B
Sat 03:33:05 PM 37.1470 -76.3900 209° Southwest 467 537 38,000 553 Climbing FlightAware ADS-B
Sat 03:33:43 PM 37.0730 -76.4400 208° Southwest 458 527 38,000  Level FlightAware ADS-B
Sat 03:34:17 PM 37.0120 -76.4810 208° Southwest 462 532 38,000  Level FlightAware ADS-B
Sat 03:34:51 PM 36.9450 -76.5260 208° Southwest 464 534 38,000  Level FlightAware ADS-B
Sat 03:35:25 PM 36.8810 -76.5680 208° Southwest 464 534 38,000  Level FlightAware ADS-B
Sat 03:35:57 PM 36.8230 -76.6080 209° Southwest 463 533 38,000  Level FlightAware ADS-B
Sat 03:36:35 PM 36.7510 -76.6560 208° Southwest 463 533 38,000  Level FlightAware ADS-B
Sat 03:37:11 PM 36.6810 -76.7020 208° Southwest 462 532 38,000  Level FlightAware ADS-B
Sat 03:37:47 PM 36.6150 -76.7460 208° Southwest 461 531 38,000  Level FlightAware ADS-B
Sat 03:38:31 PM 36.5380 -76.7970 208° Southwest 460 529 38,000  Level FlightAware ADS-B
Sat 03:39:08 PM 36.4700 -76.8420 208° Southwest 459 528 38,000  Level FlightAware ADS-B
Sat 03:39:43 PM 36.3990 -76.8890 208° Southwest 458 527 38,000  Level FlightAware ADS-B
Sat 03:40:18 PM 36.3340 -76.9320 208° Southwest 456 525 38,000  Level FlightAware ADS-B
Sat 03:41:03 PM 36.2510 -76.9870 208° Southwest 454 522 38,000  Level FlightAware ADS-B
Sat 03:41:33 PM 36.1940 -77.0240 208° Southwest 454 522 38,000  Level FlightAware ADS-B
Sat 03:42:08 PM 36.1290 -77.0670 208° Southwest 454 522 38,000  Level FlightAware ADS-B
Sat 03:42:48 PM 36.0550 -77.1160 208° Southwest 454 522 38,000  Level FlightAware ADS-B
Sat 03:43:30 PM 35.9930 -77.1560 208° Southwest 454 522 38,000  Level FlightAware ADS-B
Sat 03:44:08 PM 35.9140 -77.2070 208° Southwest 452 520 38,000  Level FlightAware ADS-B
Sat 03:44:44 PM 35.8380 -77.2570 208° Southwest 450 518 38,000  Level FlightAware ADS-B
Sat 03:45:34 PM 35.7510 -77.3120 207° Southwest 449 517 38,000  Level FlightAware ADS-B
Sat 03:46:19 PM 35.6700 -77.3650 208° Southwest 446 513 38,000  Level FlightAware ADS-B
Sat 03:46:59 PM 35.6030 -77.4090 208° Southwest 439 505 38,000  Level FlightAware ADS-B
Sat 03:47:34 PM 35.5310 -77.4550 207° Southwest 446 513 38,000  Level FlightAware ADS-B
Sat 03:48:10 PM 35.4600 -77.5010 208° Southwest 446 513 38,000  Level FlightAware ADS-B
Sat 03:48:44 PM 35.4030 -77.5390 209° Southwest 447 514 38,000  Level FlightAware ADS-B
Sat 03:49:26 PM 35.3300 -77.6010 215° Southwest 446 513 38,000  Level FlightAware ADS-B
Sat 03:50:00 PM 35.2820 -77.6510 220° Southwest 445 512 38,000  Level FlightAware ADS-B
Sat 03:50:34 PM 35.2250 -77.7100 220° Southwest 443 510 38,000  Level FlightAware ADS-B
Sat 03:51:10 PM 35.1710 -77.7660 220° Southwest 443 510 38,000  Level FlightAware ADS-B
Sat 03:51:46 PM 35.1150 -77.8240 220° Southwest 444 511 38,000  Level FlightAware ADS-B
Sat 03:52:22 PM 35.0540 -77.8870 220° Southwest 444 511 38,000  Level FlightAware ADS-B
Sat 03:52:58 PM 34.9960 -77.9460 220° Southwest 444 511 38,000  Level FlightAware ADS-B
Sat 03:53:30 PM 34.9460 -77.9970 220° Southwest 445 512 38,000  Level FlightAware ADS-B
Sat 03:54:06 PM 34.8890 -78.0560 220° Southwest 446 513 38,000  Level FlightAware ADS-B
Sat 03:54:16 PM 34.8790 -78.0670 222° Southwest 445 512 38,000  Level FlightAware ADS-B
Sat 03:55:08 PM 34.8103 -78.1394 222° Southwest 452 520 38,000  Level Washington Center
Sat 03:56:09 PM 34.7164 -78.2375 221° Southwest 446 513 38,000  Level Washington Center
Sat 03:58:30 PM 34.4789 -78.4772 220° Southwest 446 513 38,000 -30 Level Jacksonville Center
Sat 03:59:31 PM 34.3964 -78.5644 221° Southwest 446 513 37,900  Descending Jacksonville Center
Sat 04:00:31 PM 34.3014 -78.6572 219° Southwest 446 513 38,000 50 Climbing Jacksonville Center
Sat 04:01:31 PM 34.2086 -78.7497 220° Southwest 441 507 38,000 -50 Level Jacksonville Center
Sat 04:02:31 PM 34.1136 -78.8419 219° Southwest 441 507 37,900  Descending Jacksonville Center
Sat 04:03:31 PM 34.0206 -78.9364 220° Southwest 441 507 38,000 50 Climbing Jacksonville Center
Sat 04:04:31 PM 33.9297 -79.0306 221° Southwest 441 507 38,000  Level Jacksonville Center
Sat 04:05:31 PM 33.8406 -79.1244 221° Southwest 441 507 38,000  Level Jacksonville Center
Sat 04:06:30 PM 33.7517 -79.2183 221° Southwest 441 507 38,000  Level Jacksonville Center
Sat 04:07:31 PM 33.6667 -79.3092 222° Southwest 426 490 38,000 -50 Level Jacksonville Center
Sat 04:08:30 PM 33.5797 -79.4075 223° Southwest 426 490 37,900  Descending Jacksonville Center
Sat 04:09:31 PM 33.4903 -79.5031 222° Southwest 426 490 38,000 50 Climbing Jacksonville Center
Sat 04:10:31 PM 33.3989 -79.5986 221° Southwest 426 490 38,000  Level Jacksonville Center
Sat 04:11:31 PM 33.3097 -79.6964 223° Southwest 426 490 38,000  Level Jacksonville Center
Sat 04:12:31 PM 33.2181 -79.7914 221° Southwest 426 490 38,000 -50 Level Jacksonville Center
Sat 04:13:31 PM 33.1306 -79.8839 222° Southwest 426 490 37,900 -50 Descending Jacksonville Center
Sat 04:14:31 PM 33.0369 -79.9761 220° Southwest 426 490 37,900 50 Level Jacksonville Center
Sat 04:15:30 PM 32.9450 -80.0733 222° Southwest 431 496 38,000 50 Climbing Jacksonville Center
Sat 04:16:30 PM 32.8533 -80.1725 222° Southwest 444 511 38,000  Level Jacksonville Center
Sat 04:17:30 PM 32.7636 -80.2692 222° Southwest 444 511 38,000  Level Jacksonville Center
Sat 04:18:31 PM 32.6756 -80.3628 222° Southwest 444 511 38,000  Level Jacksonville Center
Sat 04:24:25 PM 32.1320 -80.9240 222° Southwest 433 498 38,000 15 Level FlightAware ADS-B
Sat 04:25:13 PM 32.0660 -80.9910 221° Southwest 432 497 38,100  Climbing FlightAware ADS-B
Sat 04:25:45 PM 32.0200 -81.0380 221° Southwest 430 495 38,000 -82 Descending FlightAware ADS-B
Sat 04:26:26 PM 31.9580 -81.1020 221° Southwest 429 494 38,000  Level FlightAware ADS-B
Sat 04:26:58 PM 31.9100 -81.1510 221° Southwest 428 493 38,000  Level FlightAware ADS-B
Sat 04:27:31 PM 31.8610 -81.2000 220° Southwest 428 493 38,000  Level FlightAware ADS-B
Sat 04:28:12 PM 31.8030 -81.2600 221° Southwest 428 493 38,000  Level FlightAware ADS-B
Sat 04:28:42 PM 31.7450 -81.3180 220° Southwest 430 495 38,000  Level FlightAware ADS-B
Sat 04:29:19 PM 31.6880 -81.3760 221° Southwest 428 493 38,000 82 Level FlightAware ADS-B
Sat 04:29:55 PM 31.6350 -81.4300 221° Southwest 428 493 38,100  Climbing FlightAware ADS-B
Sat 04:30:32 PM 31.5780 -81.4870 220° Southwest 425 489 38,000 -87 Descending FlightAware ADS-B
Sat 04:31:04 PM 31.5300 -81.5350 220° Southwest 423 487 38,000  Level FlightAware ADS-B
Sat 04:31:41 PM 31.4800 -81.5860 221° Southwest 424 488 38,000  Level FlightAware ADS-B
Sat 04:32:14 PM 31.4220 -81.6320 214° Southwest 437 503 38,000  Level FlightAware ADS-B
Sat 04:32:45 PM 31.3870 -81.6480 201° Southwest 440 506 38,000  Level FlightAware ADS-B
Sat 04:33:23 PM 31.2880 -81.6880 199° South 441 507 38,000  Level FlightAware ADS-B
Sat 04:33:58 PM 31.2200 -81.7160 199° South 444 511 38,000  Level FlightAware ADS-B
Sat 04:34:34 PM 31.1500 -81.7440 199° South 446 513 38,000  Level FlightAware ADS-B
Sat 04:35:08 PM 31.0870 -81.7690 199° South 447 514 38,000 83 Level FlightAware ADS-B
Sat 04:35:46 PM 31.0110 -81.7990 199° South 446 513 38,100  Climbing FlightAware ADS-B
Sat 04:36:21 PM 30.9440 -81.8260 199° South 445 512 38,000 -90 Descending FlightAware ADS-B
Sat 04:36:53 PM 30.8800 -81.8510 199° South 444 511 38,000  Level FlightAware ADS-B
Sat 04:37:30 PM 30.8070 -81.8800 199° South 443 510 38,000  Level FlightAware ADS-B
Sat 04:38:07 PM 30.7350 -81.9090 199° South 441 507 38,000  Level FlightAware ADS-B
Sat 04:38:37 PM 30.6790 -81.9310 199° South 440 506 38,000  Level FlightAware ADS-B
Sat 04:39:14 PM 30.6060 -81.9600 199° South 439 505 38,000  Level FlightAware ADS-B
Sat 04:39:50 PM 30.5380 -81.9870 199° South 439 505 38,000  Level FlightAware ADS-B
Sat 04:40:26 PM 30.4680 -82.0150 199° South 439 505 38,000  Level FlightAware ADS-B
Sat 04:40:58 PM 30.4080 -82.0380 198° South 438 504 38,000  Level FlightAware ADS-B
Sat 04:41:37 PM 30.3310 -82.0680 199° South 437 503 38,000  Level FlightAware ADS-B
Sat 04:42:07 PM 30.2730 -82.0920 200° South 439 505 38,000  Level FlightAware ADS-B
Sat 04:42:44 PM 30.2020 -82.1200 199° South 441 507 38,000  Level FlightAware ADS-B
Sat 04:43:21 PM 30.1300 -82.1470 198° South 443 510 38,000 -417 Level FlightAware ADS-B
Sat 04:43:56 PM 30.0620 -82.1740 199° South 442 509 37,500 -2,087 Descending FlightAware ADS-B
Sat 04:44:30 PM 29.9950 -82.2000 199° South 440 506 35,600 -3,313 Descending FlightAware ADS-B
Sat 04:45:03 PM 29.9330 -82.2240 199° South 442 509 33,800 -2,400 Descending FlightAware ADS-B
Sat 04:45:40 PM 29.8610 -82.2520 199° South 446 513 32,800 -1,459 Descending FlightAware ADS-B
Sat 04:46:17 PM 29.7870 -82.2810 199° South 448 516 32,000 -2,000 Descending FlightAware ADS-B
Sat 04:46:49 PM 29.7250 -82.3050 199° South 451 519 30,500 -2,955 Descending FlightAware ADS-B
Sat 04:47:24 PM 29.6550 -82.3320 199° South 449 517 28,700 -2,870 Descending FlightAware ADS-B
Sat 04:47:58 PM 29.5860 -82.3510 193° South 461 531 27,200 -2,261 Descending FlightAware ADS-B
Sat 04:48:33 PM 29.5100 -82.3490 179° South 460 529 26,100 -2,270 Descending FlightAware ADS-B
Sat 04:49:12 PM 29.4290 -82.3400 174° South 447 514 24,400 -2,382 Descending FlightAware ADS-B
Sat 04:49:41 PM 29.3710 -82.3330 174° South 444 511 23,400 -2,029 Descending FlightAware ADS-B
Sat 04:50:20 PM 29.2900 -82.3230 174° South 443 510 22,100 -2,000 Descending FlightAware ADS-B
Sat 04:50:53 PM 29.2240 -82.3170 175° South 431 496 21,000 -2,000 Descending FlightAware ADS-B
Sat 04:51:26 PM 29.1610 -82.3300 190° South 418 481 19,900 -2,113 Descending FlightAware ADS-B
Sat 04:52:04 PM 29.0930 -82.3570 199° South 419 482 18,500 -2,189 Descending FlightAware ADS-B
Sat 04:52:40 PM 29.0300 -82.3830 200° South 409 471 17,200 -2,260 Descending FlightAware ADS-B
Sat 04:53:21 PM 28.9560 -82.4190 203° Southwest 397 457 15,600 -2,000 Descending FlightAware ADS-B
Sat 04:53:55 PM 28.8990 -82.4500 205° Southwest 382 440 14,700 -1,690 Descending FlightAware ADS-B
Sat 04:54:32 PM 28.8420 -82.4800 205° Southwest 364 419 13,600 -1,378 Descending FlightAware ADS-B
Sat 04:55:09 PM 28.7840 -82.5000 197° South 351 404 13,000 -957 Descending FlightAware ADS-B
Sat 04:55:41 PM 28.7340 -82.5160 196° South 340 391 12,500 -870 Descending FlightAware ADS-B
Sat 04:56:18 PM 28.6820 -82.5410 203° Southwest 317 365 12,000 -1,014 Descending FlightAware ADS-B
Sat 04:56:52 PM 28.6380 -82.5660 207° Southwest 304 350 11,300 -870 Descending FlightAware ADS-B
Sat 04:57:27 PM 28.5930 -82.5900 205° Southwest 307 353 11,000 -257 Descending FlightAware ADS-B
Sat 04:58:02 PM 28.5490 -82.6140 206° Southwest 305 351 11,000  Level FlightAware ADS-B
Sat 04:58:39 PM 28.5020 -82.6400 206° Southwest 306 352 11,000  Level FlightAware ADS-B
Sat 04:59:09 PM 28.4630 -82.6610 205° Southwest 305 351 11,000 -627 Level FlightAware ADS-B
Sat 04:59:46 PM 28.4150 -82.6870 205° Southwest 304 350 10,300 -1,222 Descending FlightAware ADS-B
Sat 05:00:03 PM 28.3960 -82.6970 205° Southwest 304 350 9,900 -1,600 Descending FlightAware ADS-B
Sat 05:00:31 PM 28.3600 -82.7180 207° Southwest 302 348 9,100 -1,750 Descending FlightAware ADS-B
Sat 05:00:51 PM 28.3350 -82.7320 206° Southwest 302 348 8,500 -1,742 Descending FlightAware ADS-B
Sat 05:01:02 PM 28.3210 -82.7370 197° South 297 342 8,200 -1,600 Descending FlightAware ADS-B
Sat 05:01:06 PM 28.3140 -82.7370 180° South 295 339 8,100 -1,000 Descending FlightAware ADS-B
Sat 05:01:26 PM 28.2920 -82.7310 166° South 286 329 7,800 -1,224 Descending FlightAware ADS-B
Sat 05:01:55 PM 28.2540 -82.7140 158° South 282 325 7,100 -980 Descending FlightAware ADS-B
Sat 05:02:15 PM 28.2280 -82.7030 160° South 286 329 7,000 -154 Descending FlightAware ADS-B
Sat 05:02:34 PM 28.2070 -82.6930 157° South 285 328 7,000  Level FlightAware ADS-B
Sat 05:02:46 PM 28.1930 -82.6880 163° South 286 329 7,000  Level FlightAware ADS-B
Sat 05:03:10 PM 28.1620 -82.6810 169° South 286 329 7,000 -522 Level FlightAware ADS-B
Sat 05:03:32 PM 28.1300 -82.6740 169° South 284 327 6,600 -1,571 Descending FlightAware ADS-B
Sat 05:03:52 PM 28.1050 -82.6680 168° South 285 328 5,900 -1,875 Descending FlightAware ADS-B
Sat 05:04:04 PM 28.0890 -82.6640 168° South 283 326 5,600 -1,167 Descending FlightAware ADS-B
Sat 05:04:28 PM 28.0580 -82.6560 167° South 275 316 5,200 -818 Descending FlightAware ADS-B
Sat 05:04:48 PM 28.0340 -82.6500 168° South 276 318 5,000 -333 Descending FlightAware ADS-B
Sat 05:05:04 PM 28.0120 -82.6450 169° South 279 321 5,000  Level FlightAware ADS-B
Sat 05:05:23 PM 27.9880 -82.6400 170° South 280 322 5,000  Level FlightAware ADS-B
Sat 05:05:35 PM 27.9730 -82.6370 170° South 280 322 5,000 -486 Level FlightAware ADS-B
Sat 05:06:00 PM 27.9420 -82.6330 173° South 273 314 4,700 -800 Descending FlightAware ADS-B
Sat 05:06:20 PM 27.9170 -82.6290 172° South 250 288 4,400 -789 Descending FlightAware ADS-B
Sat 05:06:38 PM 27.8990 -82.6260 172° South 236 272 4,200 -833 Descending FlightAware ADS-B
Sat 05:06:56 PM 27.8800 -82.6210 167° South 221 254 3,900 -1,091 Descending FlightAware ADS-B
Sat 05:07:00 PM 27.8760 -82.6180 146° Southeast 216 249 3,800 -1,000 Descending FlightAware ADS-B
Sat 05:07:08 PM 27.8700 -82.6120 139° Southeast 210 242 3,700 -1,125 Descending FlightAware ADS-B
Sat 05:07:16 PM 27.8670 -82.6040 113° Southeast 208 239 3,500 -1,800 Descending FlightAware ADS-B
Sat 05:07:18 PM 27.8670 -82.6020 90° East 205 236 3,400 -1,667 Descending FlightAware ADS-B
Sat 05:07:34 PM 27.8650 -82.5870 99° East 197 227 3,000 -1,833 Descending FlightAware ADS-B
Sat 05:07:54 PM 27.8690 -82.5670 77° East 195 224 2,300 -2,000 Descending FlightAware ADS-B
Sat 05:08:04 PM 27.8730 -82.5580 63° Northeast 189 217 2,000 -1,200 Descending FlightAware ADS-B
Sat 05:08:09 PM 27.8740 -82.5570 41° Northeast 187 215 2,000 -1,800 Level FlightAware ADS-B
Sat 05:08:14 PM 27.8800 -82.5520 36° Northeast 184 212 1,700 -2,000 Descending FlightAware ADS-B
Sat 05:08:24 PM 27.8860 -82.5500 16° North 191 220 1,500 -1,200 Descending FlightAware ADS-B
Sat 05:08:44 PM 27.9060 -82.5450 12° North 176 203 1,100 -811 Descending FlightAware ADS-B
Sat 05:09:01 PM 27.9190 -82.5440 North 156 180 1,000 -667 Descending FlightAware ADS-B
Sat 05:09:20 PM 27.9320 -82.5440 360° North 143 165 700 -923 Descending FlightAware ADS-B
Sat 05:09:40 PM 27.9450 -82.5430 North 136 157 400 -375 Descending FlightAware ADS-B
Sat 05:10:08 PM 27.9600 -82.5420 North 136 157 400  Level FlightAware ADS-B

Login

Don't have an account? Register now (free) for customized features, flight alerts, and more!